Yatesville, Pennsylvania
Current Conditions -  °F | °C
As of 9:54 AM on Thursday 30 Oct 2014 (Local Time) from KAVP Reporting Station
Few Clouds Few Clouds  
Wind Chill: 41°   Ceiling: Unl
Heat Index: 47°   Visibility: 10mi
Dew Point: 36°   Wind: 15mph
Humidity: 66%   Direction: 310°NW
Pressure: 30.03"   Gusts: NA
Location:  41.2973°N, 75.7399°W
Report Text: KAVP 301354Z 31013KT 10SM FEW034 08/02 A3003 RMK AO2 SLP170 T00830022
Loading
Personal Weather Stations






























Interactive Weather Map
Tropical Storm Tracking
New forecast layout! Learn more

10-Day Weather Forecast

Advertisements
Track Severe Weather on mobile